Time,TemperatureF,DewpointF,PressureIn,WindDirection,WindDirectionDegrees,WindSpeedMPH,WindSpeedGustMPH,Humidity,HourlyPrecipIn,Conditions,Clouds,dailyrainin,SoftwareType,DateUTC
2013-01-11 00:00:00,39.6,37.8,30.52,East,82,0.0,0.0,93,0.00,,,0.00,meteohub,2013-01-11 05:00:00,
2013-01-11 00:03:00,39.7,37.9,30.52,East,82,0.0,0.0,93,0.00,,,0.00,meteohub,2013-01-11 05:03:00,
2013-01-11 00:04:00,39.9,38.1,30.52,East,79,0.0,0.0,93,0.00,,,0.00,meteohub,2013-01-11 05:04:00,
2013-01-11 00:09:00,39.9,38.1,30.52,East,79,0.0,0.0,93,0.00,,,0.00,meteohub,2013-01-11 05:09:00,
2013-01-11 00:14:00,39.7,37.9,30.52,NW,322,0.0,0.0,93,0.00,,,0.00,meteohub,2013-01-11 05:14:00,
2013-01-11 00:19:00,39.7,37.9,30.52,West,277,0.0,0.0,93,0.00,,,0.00,meteohub,2013-01-11 05:19:00,
2013-01-11 00:24:00,39.7,37.6,30.52,West,279,0.0,0.0,92,0.00,,,0.00,meteohub,2013-01-11 05:24:00,
2013-01-11 00:29:00,39.6,37.4,30.52,West,271,0.0,0.0,92,0.00,,,0.00,meteohub,2013-01-11 05:29:00,
2013-01-11 00:34:00,39.7,37.4,30.52,West,273,0.0,1.0,91,0.00,,,0.00,meteohub,2013-01-11 05:34:00,
2013-01-11 00:39:00,39.7,37.4,30.52,West,273,0.0,1.0,91,0.00,,,0.00,meteohub,2013-01-11 05:39:00,
2013-01-11 00:44:00,39.6,36.9,30.52,West,273,0.0,1.0,90,0.00,,,0.00,meteohub,2013-01-11 05:44:00,
2013-01-11 00:49:00,39.0,36.3,30.51,West,276,0.0,0.0,90,0.00,,,0.00,meteohub,2013-01-11 05:49:00,
2013-01-11 00:54:00,38.5,35.8,30.51,West,276,0.0,0.0,90,0.00,,,0.00,meteohub,2013-01-11 05:54:00,
2013-01-11 00:59:00,39.0,37.2,30.51,NE,36,0.0,0.0,93,0.00,,,0.00,meteohub,2013-01-11 05:59:00,
2013-01-11 01:05:00,39.6,37.8,30.51,NE,50,0.0,0.0,93,0.00,,,0.00,meteohub,2013-01-11 06:05:00,
2013-01-11 01:10:00,39.7,37.9,30.51,NE,50,0.0,0.0,93,0.00,,,0.00,meteohub,2013-01-11 06:10:00,
2013-01-11 01:15:00,39.7,37.9,30.51,NE,51,0.0,0.0,93,0.00,,,0.00,meteohub,2013-01-11 06:15:00,
2013-01-11 01:20:00,39.6,37.8,30.51,NE,50,0.0,0.0,93,0.00,,,0.00,meteohub,2013-01-11 06:20:00,
2013-01-11 01:25:00,39.0,36.9,30.51,NE,50,0.0,0.0,92,0.00,,,0.00,meteohub,2013-01-11 06:25:00,
2013-01-11 01:30:00,38.7,36.9,30.51,NE,51,0.0,0.0,93,0.00,,,0.00,meteohub,2013-01-11 06:30:00,
2013-01-11 01:35:00,38.7,36.9,30.51,NE,51,0.0,0.0,93,0.00,,,0.00,meteohub,2013-01-11 06:35:00,
2013-01-11 01:40:00,38.5,36.7,30.51,NE,50,0.0,0.0,93,0.00,,,0.00,meteohub,2013-01-11 06:40:00,
2013-01-11 01:45:00,38.3,36.5,30.51,NE,51,0.0,0.0,93,0.00,,,0.00,meteohub,2013-01-11 06:45:00,
2013-01-11 01:50:00,38.1,36.3,30.50,NE,51,0.0,0.0,93,0.00,,,0.00,meteohub,2013-01-11 06:50:00,
2013-01-11 01:55:00,38.5,36.9,30.50,ESE,105,0.0,0.0,94,0.00,,,0.00,meteohub,2013-01-11 06:55:00,
2013-01-11 02:00:00,39.4,38.1,30.49,East,98,0.0,1.0,95,0.00,,,0.00,meteohub,2013-01-11 07:00:00,
2013-01-11 02:05:00,39.9,38.7,30.49,ESE,113,0.0,1.0,95,0.00,,,0.00,meteohub,2013-01-11 07:05:00,
2013-01-11 02:10:00,39.9,38.3,30.50,ESE,116,0.0,1.0,94,0.00,,,0.00,meteohub,2013-01-11 07:10:00,
2013-01-11 02:15:00,39.7,37.9,30.49,East,98,0.0,1.0,93,0.00,,,0.00,meteohub,2013-01-11 07:15:00,
2013-01-11 02:20:00,39.9,38.3,30.49,East,99,1.0,2.0,94,0.00,,,0.00,meteohub,2013-01-11 07:20:00,
2013-01-11 02:25:00,39.6,37.4,30.48,East,80,2.0,2.0,92,0.00,,,0.00,meteohub,2013-01-11 07:25:00,
2013-01-11 02:30:00,39.9,38.7,30.49,East,83,1.0,3.0,95,0.00,,,0.00,meteohub,2013-01-11 07:30:00,
2013-01-11 02:35:00,39.7,38.1,30.48,ENE,64,1.0,3.0,94,0.00,,,0.00,meteohub,2013-01-11 07:35:00,
2013-01-11 02:40:00,39.2,37.4,30.48,ENE,67,0.0,3.0,93,0.00,,,0.00,meteohub,2013-01-11 07:40:00,
2013-01-11 02:45:00,39.4,38.1,30.48,East,83,2.0,2.0,95,0.00,,,0.00,meteohub,2013-01-11 07:45:00,
2013-01-11 02:50:00,39.9,38.8,30.48,East,86,1.0,3.0,96,0.00,,,0.00,meteohub,2013-01-11 07:50:00,
2013-01-11 02:55:00,39.9,38.7,30.47,East,85,1.0,3.0,95,0.00,,,0.00,meteohub,2013-01-11 07:55:00,
2013-01-11 03:00:00,40.1,39.0,30.47,East,89,3.0,3.0,96,0.00,,,0.00,meteohub,2013-01-11 08:00:00,
2013-01-11 03:05:00,40.6,39.6,30.47,ENE,65,0.0,5.0,96,0.00,,,0.00,meteohub,2013-01-11 08:05:00,
2013-01-11 03:10:00,40.6,39.4,30.47,ESE,110,0.0,5.0,95,0.00,,,0.00,meteohub,2013-01-11 08:10:00,
2013-01-11 03:15:00,41.2,40.1,30.47,ESE,109,0.0,3.0,96,0.00,,,0.00,meteohub,2013-01-11 08:15:00,
2013-01-11 03:20:00,41.5,40.5,30.47,ESE,105,0.0,2.0,96,0.00,,,0.00,meteohub,2013-01-11 08:20:00,
2013-01-11 03:25:00,41.5,40.3,30.46,ESE,105,0.0,2.0,95,0.00,,,0.00,meteohub,2013-01-11 08:25:00,
2013-01-11 03:30:00,41.5,40.3,30.46,ESE,105,0.0,1.0,95,0.00,,,0.00,meteohub,2013-01-11 08:30:00,
2013-01-11 03:35:00,41.4,40.1,30.46,ESE,105,0.0,0.0,95,0.00,,,0.00,meteohub,2013-01-11 08:35:00,
2013-01-11 03:40:00,41.4,40.1,30.46,ESE,105,0.0,0.0,95,0.00,,,0.00,meteohub,2013-01-11 08:40:00,
2013-01-11 03:45:00,40.6,38.8,30.46,East,101,0.0,0.0,93,0.00,,,0.00,meteohub,2013-01-11 08:45:00,
2013-01-11 03:50:00,39.9,38.3,30.45,NE,43,0.0,0.0,94,0.00,,,0.00,meteohub,2013-01-11 08:50:00,
2013-01-11 03:55:00,39.9,38.7,30.45,East,79,0.0,1.0,95,0.00,,,0.00,meteohub,2013-01-11 08:55:00,
2013-01-11 04:00:00,40.1,38.8,30.45,ENE,71,0.0,1.0,95,0.00,,,0.00,meteohub,2013-01-11 09:00:00,
2013-01-11 04:05:00,40.3,39.2,30.45,ENE,70,0.0,1.0,96,0.00,,,0.00,meteohub,2013-01-11 09:05:00,
2013-01-11 04:10:00,40.6,39.6,30.46,ENE,71,0.0,0.0,96,0.00,,,0.00,meteohub,2013-01-11 09:10:00,
2013-01-11 04:15:00,40.8,39.7,30.45,ENE,71,0.0,0.0,96,0.00,,,0.00,meteohub,2013-01-11 09:15:00,
2013-01-11 04:20:00,40.6,39.6,30.45,ENE,71,0.0,0.0,96,0.00,,,0.00,meteohub,2013-01-11 09:20:00,
2013-01-11 04:25:00,40.8,39.7,30.45,ENE,66,0.0,0.0,96,0.00,,,0.00,meteohub,2013-01-11 09:25:00,
2013-01-11 04:30:00,40.8,39.7,30.45,East,89,1.0,0.0,96,0.00,,,0.00,meteohub,2013-01-11 09:30:00,
2013-01-11 04:35:00,40.3,39.0,30.45,ENE,74,0.0,2.0,95,0.00,,,0.00,meteohub,2013-01-11 09:35:00,
2013-01-11 04:40:00,40.5,39.4,30.45,NE,53,0.0,2.0,96,0.00,,,0.00,meteohub,2013-01-11 09:40:00,
2013-01-11 04:45:00,40.3,39.2,30.44,NE,47,0.0,1.0,96,0.00,,,0.00,meteohub,2013-01-11 09:45:00,
2013-01-11 04:50:00,40.5,39.4,30.44,ENE,76,0.0,1.0,96,0.00,,,0.00,meteohub,2013-01-11 09:50:00,
2013-01-11 04:55:00,40.6,39.9,30.44,East,79,0.0,1.0,97,0.00,,,0.00,meteohub,2013-01-11 09:55:00,
2013-01-11 05:00:00,40.6,39.6,30.44,NE,56,0.0,1.0,96,0.00,,,0.00,meteohub,2013-01-11 10:00:00,
2013-01-11 05:06:00,40.8,40.1,30.43,East,86,0.0,3.0,97,0.00,,,0.00,meteohub,2013-01-11 10:06:00,
2013-01-11 05:11:00,41.4,40.6,30.43,ENE,76,1.0,3.0,97,0.00,,,0.00,meteohub,2013-01-11 10:11:00,
2013-01-11 05:16:00,41.7,41.0,30.43,East,94,3.0,4.0,97,0.00,,,0.00,meteohub,2013-01-11 10:16:00,
2013-01-11 05:21:00,42.1,41.4,30.43,East,85,2.0,6.0,97,0.00,,,0.00,meteohub,2013-01-11 10:21:00,
2013-01-11 05:26:00,42.1,41.0,30.43,East,98,6.0,6.0,96,0.00,,,0.00,meteohub,2013-01-11 10:26:00,
2013-01-11 05:31:00,42.3,41.2,30.43,East,89,2.0,6.0,96,0.00,,,0.00,meteohub,2013-01-11 10:31:00,
2013-01-11 05:36:00,42.4,41.2,30.43,ENE,67,5.0,6.0,95,0.00,,,0.00,meteohub,2013-01-11 10:36:00,
2013-01-11 05:41:00,42.4,41.2,30.43,ENE,65,0.0,6.0,95,0.00,,,0.00,meteohub,2013-01-11 10:41:00,
2013-01-11 05:46:00,42.3,41.0,30.43,ENE,64,0.0,5.0,95,0.00,,,0.00,meteohub,2013-01-11 10:46:00,
2013-01-11 05:51:00,42.1,40.8,30.43,ENE,65,0.0,5.0,95,0.00,,,0.00,meteohub,2013-01-11 10:51:00,
2013-01-11 05:56:00,42.3,41.0,30.44,ENE,66,0.0,2.0,95,0.00,,,0.00,meteohub,2013-01-11 10:56:00,
2013-01-11 06:01:00,42.1,40.5,30.44,ENE,61,0.0,0.0,94,0.00,,,0.00,meteohub,2013-01-11 11:01:00,
2013-01-11 06:06:00,41.9,40.6,30.43,East,79,0.0,1.0,95,0.00,,,0.00,meteohub,2013-01-11 11:06:00,
2013-01-11 06:11:00,42.1,40.8,30.43,ENE,73,0.0,1.0,95,0.00,,,0.00,meteohub,2013-01-11 11:11:00,
2013-01-11 06:17:00,42.4,41.4,30.43,East,88,1.0,4.0,96,0.00,,,0.00,meteohub,2013-01-11 11:17:00,
2013-01-11 06:22:00,42.6,41.4,30.43,East,98,1.0,4.0,95,0.00,,,0.00,meteohub,2013-01-11 11:22:00,
2013-01-11 06:27:00,43.2,41.9,30.43,ENE,78,0.0,4.0,95,0.00,,,0.00,meteohub,2013-01-11 11:27:00,
2013-01-11 06:32:00,43.3,41.7,30.44,East,93,0.0,4.0,94,0.00,,,0.00,meteohub,2013-01-11 11:32:00,
2013-01-11 06:37:00,43.2,41.5,30.44,NE,47,0.0,4.0,94,0.00,,,0.00,meteohub,2013-01-11 11:37:00,
2013-01-11 06:42:00,43.2,41.5,30.44,NE,53,0.0,1.0,94,0.00,,,0.00,meteohub,2013-01-11 11:42:00,
2013-01-11 06:47:00,43.3,41.7,30.44,ENE,57,0.0,0.0,94,0.00,,,0.00,meteohub,2013-01-11 11:47:00,
2013-01-11 06:52:00,43.5,41.9,30.43,ESE,106,0.0,1.0,94,0.00,,,0.00,meteohub,2013-01-11 11:52:00,
2013-01-11 06:57:00,43.3,41.5,30.43,East,82,1.0,1.0,93,0.00,,,0.00,meteohub,2013-01-11 11:57:00,
2013-01-11 07:02:00,43.3,41.7,30.43,East,89,2.0,3.0,94,0.00,,,0.00,meteohub,2013-01-11 12:02:00,
2013-01-11 07:07:00,43.5,41.9,30.43,East,86,1.0,3.0,94,0.00,,,0.00,meteohub,2013-01-11 12:07:00,
2013-01-11 07:12:00,44.1,42.4,30.43,East,91,2.0,3.0,94,0.00,,,0.00,meteohub,2013-01-11 12:12:00,
2013-01-11 07:17:00,44.2,42.6,30.43,NE,51,0.0,6.0,94,0.00,,,0.00,meteohub,2013-01-11 12:17:00,
2013-01-11 07:22:00,44.2,42.6,30.43,ESE,109,1.0,6.0,94,0.00,,,0.00,meteohub,2013-01-11 12:22:00,
2013-01-11 07:27:00,44.6,43.0,30.43,East,95,1.0,6.0,94,0.00,,,0.00,meteohub,2013-01-11 12:27:00,
2013-01-11 07:32:00,44.8,43.2,30.43,East,86,0.0,4.0,94,0.00,,,0.00,meteohub,2013-01-11 12:32:00,
2013-01-11 07:37:00,45.0,43.3,30.43,East,101,0.0,4.0,94,0.00,,,0.00,meteohub,2013-01-11 12:37:00,
2013-01-11 07:42:00,45.1,43.5,30.42,ESE,110,5.0,5.0,94,0.00,,,0.00,meteohub,2013-01-11 12:42:00,
2013-01-11 07:47:00,45.7,43.7,30.43,ESE,119,0.0,6.0,93,0.00,,,0.00,meteohub,2013-01-11 12:47:00,
2013-01-11 07:52:00,46.0,44.1,30.42,East,101,4.0,6.0,93,0.00,,,0.00,meteohub,2013-01-11 12:52:00,
2013-01-11 07:57:00,46.2,44.1,30.42,ESE,104,2.0,8.0,92,0.00,,,0.00,meteohub,2013-01-11 12:57:00,
2013-01-11 08:02:00,46.6,44.4,30.42,East,91,6.0,10.0,92,0.00,,,0.00,meteohub,2013-01-11 13:02:00,
2013-01-11 08:07:00,46.6,44.4,30.42,ESE,107,3.0,10.0,92,0.00,,,0.00,meteohub,2013-01-11 13:07:00,
2013-01-11 08:12:00,46.8,44.6,30.42,East,91,10.0,10.0,92,0.00,,,0.00,meteohub,2013-01-11 13:12:00,
2013-01-11 08:17:00,46.9,44.4,30.42,ESE,102,8.0,10.0,91,0.00,,,0.00,meteohub,2013-01-11 13:17:00,
2013-01-11 08:22:00,47.1,44.6,30.42,East,94,3.0,11.0,91,0.00,,,0.00,meteohub,2013-01-11 13:22:00,
2013-01-11 08:27:00,47.7,45.1,30.42,WSW,243,7.0,11.0,91,0.00,,,0.00,meteohub,2013-01-11 13:27:00,
2013-01-11 08:32:00,47.8,45.0,30.42,SE,138,3.0,10.0,90,0.00,,,0.00,meteohub,2013-01-11 13:32:00,
2013-01-11 08:37:00,48.0,45.1,30.42,ESE,107,5.0,9.0,90,0.00,,,0.00,meteohub,2013-01-11 13:37:00,
2013-01-11 08:42:00,48.6,45.5,30.42,SE,138,6.0,9.0,89,0.00,,,0.00,meteohub,2013-01-11 13:42:00,
2013-01-11 08:47:00,49.3,46.2,30.42,SE,128,6.0,8.0,89,0.00,,,0.00,meteohub,2013-01-11 13:47:00,
2013-01-11 08:52:00,49.5,46.0,30.42,ESE,102,7.0,8.0,88,0.00,,,0.00,meteohub,2013-01-11 13:52:00,
2013-01-11 08:57:00,49.6,46.2,30.41,SE,130,7.0,10.0,88,0.00,,,0.00,meteohub,2013-01-11 13:57:00,
2013-01-11 09:02:00,49.8,46.0,30.41,ESE,109,4.0,10.0,87,0.00,,,0.00,meteohub,2013-01-11 14:02:00,
2013-01-11 09:07:00,50.2,46.4,30.41,SW,231,1.0,10.0,87,0.00,,,0.00,meteohub,2013-01-11 14:07:00,
2013-01-11 09:12:00,50.4,46.4,30.41,SE,127,3.0,9.0,86,0.00,,,0.00,meteohub,2013-01-11 14:12:00,
2013-01-11 09:17:00,50.5,46.6,30.40,SSE,148,2.0,8.0,86,0.00,,,0.00,meteohub,2013-01-11 14:17:00,
2013-01-11 09:22:00,50.7,46.8,30.40,SSE,160,1.0,8.0,86,0.00,,,0.00,meteohub,2013-01-11 14:22:00,
2013-01-11 09:27:00,51.3,46.9,30.40,ESE,109,6.0,8.0,85,0.00,,,0.00,meteohub,2013-01-11 14:27:00,
2013-01-11 09:32:00,51.4,46.8,30.40,SSW,201,2.0,8.0,84,0.00,,,0.00,meteohub,2013-01-11 14:32:00,
2013-01-11 09:37:00,51.6,46.9,30.40,East,89,7.0,8.0,84,0.00,,,0.00,meteohub,2013-01-11 14:37:00,
2013-01-11 09:42:00,52.0,46.9,30.40,SE,141,2.0,8.0,83,0.00,,,0.00,meteohub,2013-01-11 14:42:00,
2013-01-11 09:47:00,52.2,46.8,30.40,ESE,112,6.0,11.0,82,0.00,,,0.00,meteohub,2013-01-11 14:47:00,
2013-01-11 09:52:00,52.3,46.9,30.40,East,100,7.0,11.0,82,0.00,,,0.00,meteohub,2013-01-11 14:52:00,
2013-01-11 09:57:00,52.3,46.9,30.40,ESE,121,8.0,14.0,82,0.00,,,0.00,meteohub,2013-01-11 14:57:00,
2013-01-11 10:02:00,52.3,46.9,30.40,ESE,110,3.0,14.0,82,0.00,,,0.00,meteohub,2013-01-11 15:02:00,
2013-01-11 10:07:00,52.5,47.1,30.40,SE,145,4.0,12.0,82,0.00,,,0.00,meteohub,2013-01-11 15:07:00,
2013-01-11 10:12:00,52.5,47.1,30.40,ESE,102,9.0,13.0,82,0.00,,,0.00,meteohub,2013-01-11 15:12:00,
2013-01-11 10:17:00,52.9,47.3,30.39,SE,127,6.0,13.0,81,0.00,,,0.00,meteohub,2013-01-11 15:17:00,
2013-01-11 10:22:00,52.9,47.3,30.39,ESE,114,5.0,13.0,81,0.00,,,0.00,meteohub,2013-01-11 15:22:00,
2013-01-11 10:27:00,53.2,47.5,30.39,SSE,166,7.0,13.0,81,0.00,,,0.00,meteohub,2013-01-11 15:27:00,
2013-01-11 10:32:00,53.4,47.5,30.38,ESE,112,7.0,13.0,80,0.00,,,0.00,meteohub,2013-01-11 15:32:00,
2013-01-11 10:37:00,53.4,47.7,30.38,ESE,105,3.0,13.0,81,0.00,,,0.00,meteohub,2013-01-11 15:37:00,
2013-01-11 10:42:00,53.8,47.8,30.37,SE,127,7.0,13.0,80,0.00,,,0.00,meteohub,2013-01-11 15:42:00,
2013-01-11 10:47:00,53.8,48.0,30.36,SE,124,2.0,13.0,81,0.00,,,0.00,meteohub,2013-01-11 15:47:00,
2013-01-11 10:52:00,54.0,48.2,30.36,SW,217,6.0,12.0,81,0.00,,,0.00,meteohub,2013-01-11 15:52:00,
2013-01-11 10:57:00,54.1,48.4,30.36,SSE,152,5.0,12.0,81,0.00,,,0.00,meteohub,2013-01-11 15:57:00,
2013-01-11 11:02:00,54.3,48.9,30.37,SE,139,7.0,12.0,82,0.00,,,0.00,meteohub,2013-01-11 16:02:00,
2013-01-11 11:07:00,54.5,48.7,30.36,SSE,158,4.0,11.0,81,0.00,,,0.00,meteohub,2013-01-11 16:07:00,
2013-01-11 11:12:00,54.5,49.1,30.35,SW,224,2.0,10.0,82,0.00,,,0.00,meteohub,2013-01-11 16:12:00,
2013-01-11 11:17:00,54.7,49.3,30.35,SE,128,2.0,12.0,82,0.00,,,0.00,meteohub,2013-01-11 16:17:00,
2013-01-11 11:22:00,54.9,49.5,30.35,SE,139,3.0,12.0,82,0.00,,,0.00,meteohub,2013-01-11 16:22:00,
2013-01-11 11:27:00,55.0,49.6,30.35,South,191,2.0,12.0,82,0.00,,,0.00,meteohub,2013-01-11 16:27:00,
2013-01-11 11:32:00,55.0,49.6,30.35,ESE,106,3.0,9.0,82,0.00,,,0.00,meteohub,2013-01-11 16:32:00,
2013-01-11 11:37:00,55.0,50.0,30.34,East,92,4.0,9.0,83,0.00,,,0.00,meteohub,2013-01-11 16:37:00,
2013-01-11 11:42:00,55.0,50.0,30.34,South,169,1.0,9.0,83,0.00,,,0.00,meteohub,2013-01-11 16:42:00,
2013-01-11 11:47:00,55.0,50.0,30.34,SW,229,4.0,9.0,83,0.00,,,0.00,meteohub,2013-01-11 16:47:00,
2013-01-11 11:52:00,55.2,50.2,30.33,South,186,0.0,9.0,83,0.00,,,0.00,meteohub,2013-01-11 16:52:00,
2013-01-11 11:57:00,55.4,50.4,30.32,SSE,148,0.0,9.0,83,0.00,,,0.00,meteohub,2013-01-11 16:57:00,
2013-01-11 12:02:00,55.2,50.2,30.31,ESE,119,8.0,9.0,83,0.00,,,0.00,meteohub,2013-01-11 17:02:00,
2013-01-11 12:07:00,55.2,50.5,30.30,South,181,2.0,12.0,84,0.00,,,0.00,meteohub,2013-01-11 17:07:00,
2013-01-11 12:12:00,55.4,50.7,30.30,South,182,4.0,12.0,84,0.00,,,0.00,meteohub,2013-01-11 17:12:00,
2013-01-11 12:17:00,55.6,50.9,30.30,SSE,151,1.0,12.0,84,0.00,,,0.00,meteohub,2013-01-11 17:17:00,
2013-01-11 12:22:00,55.8,51.1,30.30,SSE,162,1.0,11.0,84,0.00,,,0.00,meteohub,2013-01-11 17:22:00,
2013-01-11 12:27:00,55.8,51.1,30.29,South,176,3.0,8.0,84,0.00,,,0.00,meteohub,2013-01-11 17:27:00,
2013-01-11 12:32:00,56.1,51.4,30.29,South,186,4.0,8.0,84,0.00,,,0.00,meteohub,2013-01-11 17:32:00,
2013-01-11 12:37:00,56.3,51.4,30.29,SSE,153,3.0,8.0,84,0.00,,,0.00,meteohub,2013-01-11 17:37:00,
2013-01-11 12:42:00,56.7,51.8,30.28,SSW,210,2.0,8.0,84,0.00,,,0.00,meteohub,2013-01-11 17:42:00,
2013-01-11 12:47:00,56.8,52.0,30.28,South,179,4.0,8.0,84,0.00,,,0.00,meteohub,2013-01-11 17:47:00,
2013-01-11 12:52:00,57.0,52.2,30.28,South,169,5.0,9.0,84,0.00,,,0.00,meteohub,2013-01-11 17:52:00,
2013-01-11 12:57:00,57.6,52.5,30.28,SW,228,4.0,9.0,83,0.00,,,0.00,meteohub,2013-01-11 17:57:00,
2013-01-11 13:02:00,57.6,52.5,30.28,South,191,3.0,9.0,83,0.00,,,0.00,meteohub,2013-01-11 18:02:00,
2013-01-11 13:07:00,57.6,52.5,30.27,SSW,194,5.0,6.0,83,0.00,,,0.00,meteohub,2013-01-11 18:07:00,
2013-01-11 13:12:00,57.6,52.5,30.27,SW,221,5.0,7.0,83,0.00,,,0.00,meteohub,2013-01-11 18:12:00,
2013-01-11 13:17:00,57.6,52.7,30.27,SW,225,6.0,7.0,84,0.00,,,0.00,meteohub,2013-01-11 18:17:00,
2013-01-11 13:22:00,57.4,52.9,30.27,South,174,2.0,10.0,85,0.00,,,0.00,meteohub,2013-01-11 18:22:00,
2013-01-11 13:27:00,57.0,53.2,30.27,SSW,203,3.0,10.0,87,0.00,,,0.00,meteohub,2013-01-11 18:27:00,
2013-01-11 13:32:00,56.7,52.9,30.27,SW,225,2.0,10.0,87,0.01,,,0.01,meteohub,2013-01-11 18:32:00,
2013-01-11 13:37:00,56.7,53.1,30.27,SSW,208,2.0,7.0,88,0.01,,,0.01,meteohub,2013-01-11 18:37:00,
2013-01-11 13:42:00,56.5,53.2,30.26,West,280,0.0,5.0,89,0.02,,,0.02,meteohub,2013-01-11 18:42:00,
2013-01-11 13:47:00,56.3,53.1,30.26,SSE,150,1.0,6.0,89,0.02,,,0.02,meteohub,2013-01-11 18:47:00,
2013-01-11 13:52:00,55.9,53.1,30.25,SSW,200,3.0,6.0,90,0.02,,,0.02,meteohub,2013-01-11 18:52:00,
2013-01-11 13:57:00,55.8,52.9,30.25,SE,145,1.0,6.0,90,0.02,,,0.02,meteohub,2013-01-11 18:57:00,
2013-01-11 14:02:00,55.8,52.9,30.25,SE,125,3.0,7.0,90,0.02,,,0.02,meteohub,2013-01-11 19:02:00,
2013-01-11 14:07:00,55.8,53.2,30.25,ESE,120,2.0,7.0,91,0.02,,,0.02,meteohub,2013-01-11 19:07:00,
2013-01-11 14:12:00,55.9,53.4,30.25,SSW,192,0.0,5.0,91,0.02,,,0.02,meteohub,2013-01-11 19:12:00,
2013-01-11 14:17:00,55.8,53.2,30.25,SSW,195,2.0,5.0,91,0.02,,,0.02,meteohub,2013-01-11 19:17:00,
2013-01-11 14:22:00,55.8,53.2,30.24,SSW,205,0.0,4.0,91,0.02,,,0.02,meteohub,2013-01-11 19:22:00,
2013-01-11 14:27:00,55.8,53.2,30.24,ESE,120,1.0,4.0,91,0.01,,,0.02,meteohub,2013-01-11 19:27:00,
2013-01-11 14:32:00,55.9,53.4,30.24,SSW,200,1.0,4.0,91,0.01,,,0.02,meteohub,2013-01-11 19:32:00,
2013-01-11 14:37:00,55.9,53.4,30.24,SE,145,0.0,3.0,91,0.01,,,0.02,meteohub,2013-01-11 19:37:00,
2013-01-11 14:42:00,56.1,53.6,30.24,SSE,149,0.0,5.0,91,0.00,,,0.02,meteohub,2013-01-11 19:42:00,
2013-01-11 14:47:00,56.3,53.4,30.23,South,177,1.0,5.0,90,0.00,,,0.02,meteohub,2013-01-11 19:47:00,
2013-01-11 14:52:00,56.5,53.6,30.23,SW,232,0.0,5.0,90,0.00,,,0.02,meteohub,2013-01-11 19:52:00,
2013-01-11 14:57:00,56.7,53.8,30.23,SSE,150,2.0,4.0,90,0.00,,,0.02,meteohub,2013-01-11 19:57:00,
2013-01-11 15:02:00,56.8,54.0,30.22,SSW,198,1.0,4.0,90,0.00,,,0.02,meteohub,2013-01-11 20:02:00,
2013-01-11 15:07:00,57.0,54.1,30.23,SSE,148,0.0,4.0,90,0.00,,,0.02,meteohub,2013-01-11 20:07:00,
2013-01-11 15:12:00,57.2,54.0,30.23,WSW,245,0.0,4.0,89,0.00,,,0.02,meteohub,2013-01-11 20:12:00,
2013-01-11 15:17:00,57.6,54.3,30.23,SSE,166,2.0,6.0,89,0.00,,,0.02,meteohub,2013-01-11 20:17:00,
2013-01-11 15:22:00,57.7,54.5,30.23,WSW,239,0.0,6.0,89,0.00,,,0.02,meteohub,2013-01-11 20:22:00,
2013-01-11 15:27:00,57.9,54.3,30.23,SSW,205,2.0,6.0,88,0.00,,,0.02,meteohub,2013-01-11 20:27:00,
2013-01-11 15:32:00,58.1,54.5,30.22,WSW,248,0.0,5.0,88,0.00,,,0.02,meteohub,2013-01-11 20:32:00,
2013-01-11 15:37:00,58.3,54.7,30.22,SSW,207,0.0,3.0,88,0.00,,,0.02,meteohub,2013-01-11 20:37:00,
2013-01-11 15:42:00,58.3,54.5,30.22,West,281,0.0,4.0,87,0.00,,,0.02,meteohub,2013-01-11 20:42:00,
2013-01-11 15:47:00,58.5,54.7,30.22,West,262,0.0,4.0,87,0.00,,,0.02,meteohub,2013-01-11 20:47:00,
2013-01-11 15:52:00,58.6,54.9,30.22,WSW,238,1.0,4.0,87,0.00,,,0.02,meteohub,2013-01-11 20:52:00,
2013-01-11 15:57:00,58.6,54.9,30.21,South,176,3.0,4.0,87,0.00,,,0.02,meteohub,2013-01-11 20:57:00,
2013-01-11 16:07:00,58.6,54.5,30.21,SW,224,4.0,6.0,86,0.00,,,0.02,meteohub,2013-01-11 21:07:00,
2013-01-11 16:12:00,58.8,54.7,30.21,West,276,2.0,6.0,86,0.00,,,0.02,meteohub,2013-01-11 21:12:00,
2013-01-11 16:17:00,59.2,55.0,30.20,SSW,212,3.0,8.0,86,0.00,,,0.02,meteohub,2013-01-11 21:17:00,
2013-01-11 16:22:00,59.5,55.0,30.20,SW,221,6.0,8.0,85,0.00,,,0.02,meteohub,2013-01-11 21:22:00,
2013-01-11 16:27:00,59.7,54.9,30.21,WSW,255,2.0,8.0,84,0.00,,,0.02,meteohub,2013-01-11 21:27:00,
2013-01-11 16:32:00,59.9,55.4,30.20,WSW,239,8.0,8.0,85,0.00,,,0.02,meteohub,2013-01-11 21:32:00,
2013-01-11 16:37:00,60.1,55.2,30.20,WSW,255,2.0,8.0,84,0.00,,,0.02,meteohub,2013-01-11 21:37:00,
2013-01-11 16:42:00,60.1,55.2,30.20,WSW,252,3.0,8.0,84,0.00,,,0.02,meteohub,2013-01-11 21:42:00,
2013-01-11 16:47:00,60.1,55.2,30.19,SSW,211,3.0,8.0,84,0.00,,,0.02,meteohub,2013-01-11 21:47:00,
2013-01-11 16:52:00,60.1,54.9,30.19,WNW,287,2.0,8.0,83,0.00,,,0.02,meteohub,2013-01-11 21:52:00,
2013-01-11 16:57:00,60.3,55.0,30.19,West,259,2.0,8.0,83,0.00,,,0.02,meteohub,2013-01-11 21:57:00,
2013-01-11 17:02:00,60.3,55.0,30.19,West,270,2.0,8.0,83,0.00,,,0.02,meteohub,2013-01-11 22:02:00,
2013-01-11 17:07:00,60.3,55.0,30.19,SW,217,4.0,7.0,83,0.00,,,0.02,meteohub,2013-01-11 22:07:00,
2013-01-11 17:12:00,60.3,54.7,30.19,WSW,243,5.0,7.0,82,0.00,,,0.02,meteohub,2013-01-11 22:12:00,
2013-01-11 17:17:00,60.3,55.0,30.18,WSW,257,2.0,8.0,83,0.00,,,0.02,meteohub,2013-01-11 22:17:00,
2013-01-11 17:22:00,60.4,55.2,30.19,SSE,150,2.0,12.0,83,0.00,,,0.02,meteohub,2013-01-11 22:22:00,
2013-01-11 17:27:00,60.4,55.2,30.19,South,185,1.0,12.0,83,0.00,,,0.02,meteohub,2013-01-11 22:27:00,
2013-01-11 17:32:00,60.3,55.0,30.18,SSW,207,3.0,12.0,83,0.00,,,0.02,meteohub,2013-01-11 22:32:00,
2013-01-11 17:37:00,60.3,55.0,30.18,West,269,1.0,8.0,83,0.00,,,0.02,meteohub,2013-01-11 22:37:00,
2013-01-11 17:42:00,60.3,55.4,30.18,WSW,253,3.0,6.0,84,0.00,,,0.02,meteohub,2013-01-11 22:42:00,
2013-01-11 17:47:00,60.3,55.4,30.18,SSW,198,2.0,8.0,84,0.00,,,0.02,meteohub,2013-01-11 22:47:00,
2013-01-11 17:52:00,60.3,55.4,30.18,SW,229,1.0,8.0,84,0.00,,,0.02,meteohub,2013-01-11 22:52:00,
2013-01-11 17:57:00,60.3,55.4,30.18,WSW,256,0.0,8.0,84,0.00,,,0.02,meteohub,2013-01-11 22:57:00,
2013-01-11 18:02:00,60.3,55.4,30.19,WSW,248,2.0,7.0,84,0.00,,,0.02,meteohub,2013-01-11 23:02:00,
2013-01-11 18:07:00,60.3,55.4,30.18,WSW,248,0.0,6.0,84,0.00,,,0.02,meteohub,2013-01-11 23:07:00,
2013-01-11 18:12:00,60.1,55.6,30.18,WSW,248,2.0,4.0,85,0.00,,,0.02,meteohub,2013-01-11 23:12:00,
2013-01-11 18:17:00,60.1,55.6,30.18,SW,217,4.0,6.0,85,0.00,,,0.02,meteohub,2013-01-11 23:17:00,
2013-01-11 18:22:00,59.9,55.8,30.18,West,266,0.0,6.0,86,0.00,,,0.02,meteohub,2013-01-11 23:22:00,
2013-01-11 18:27:00,59.7,55.6,30.18,SW,231,5.0,6.0,86,0.00,,,0.02,meteohub,2013-01-11 23:27:00,
2013-01-11 18:32:00,59.7,55.8,30.17,SW,231,7.0,9.0,87,0.00,,,0.02,meteohub,2013-01-11 23:32:00,
2013-01-11 18:37:00,59.5,55.6,30.17,SW,226,2.0,9.0,87,0.00,,,0.02,meteohub,2013-01-11 23:37:00,
2013-01-11 18:42:00,59.5,55.9,30.17,SW,215,3.0,9.0,88,0.00,,,0.02,meteohub,2013-01-11 23:42:00,
2013-01-11 18:47:00,59.4,55.8,30.17,SW,230,6.0,9.0,88,0.00,,,0.02,meteohub,2013-01-11 23:47:00,
2013-01-11 18:53:00,59.4,55.8,30.17,West,270,4.0,9.0,88,0.00,,,0.02,meteohub,2013-01-11 23:53:00,
2013-01-11 18:58:00,59.4,55.8,30.17,SW,214,4.0,7.0,88,0.00,,,0.02,meteohub,2013-01-11 23:58:00,
2013-01-11 19:03:00,59.4,55.8,30.17,WSW,253,3.0,7.0,88,0.00,,,0.02,meteohub,2013-01-12 00:03:00,
2013-01-11 19:08:00,59.4,55.8,30.16,SSW,207,4.0,7.0,88,0.00,,,0.02,meteohub,2013-01-12 00:08:00,
2013-01-11 19:13:00,59.4,55.8,30.16,WSW,257,3.0,7.0,88,0.00,,,0.02,meteohub,2013-01-12 00:13:00,
2013-01-11 19:18:00,59.2,55.9,30.16,SW,236,2.0,6.0,89,0.00,,,0.02,meteohub,2013-01-12 00:18:00,
2013-01-11 19:23:00,59.4,56.1,30.16,WSW,250,2.0,7.0,89,0.00,,,0.02,meteohub,2013-01-12 00:23:00,
2013-01-11 19:28:00,59.2,56.3,30.16,WSW,250,6.0,7.0,90,0.00,,,0.02,meteohub,2013-01-12 00:28:00,
2013-01-11 19:33:00,59.2,56.3,30.16,WSW,242,3.0,7.0,90,0.00,,,0.02,meteohub,2013-01-12 00:33:00,
2013-01-11 19:38:00,59.2,56.3,30.16,SW,226,7.0,9.0,90,0.00,,,0.02,meteohub,2013-01-12 00:38:00,
2013-01-11 19:43:00,59.2,56.5,30.16,SW,225,5.0,9.0,91,0.00,,,0.02,meteohub,2013-01-12 00:43:00,
2013-01-11 19:49:00,59.2,56.5,30.16,WSW,246,5.0,8.0,91,0.00,,,0.02,meteohub,2013-01-12 00:49:00,
2013-01-11 19:54:00,59.4,56.7,30.16,SW,230,4.0,7.0,91,0.00,,,0.02,meteohub,2013-01-12 00:54:00,
2013-01-11 19:59:00,59.4,57.0,30.16,WSW,245,3.0,7.0,92,0.00,,,0.02,meteohub,2013-01-12 00:59:00,
2013-01-11 20:04:00,59.4,57.0,30.15,WSW,242,2.0,7.0,92,0.00,,,0.02,meteohub,2013-01-12 01:04:00,
2013-01-11 20:09:00,59.4,57.0,30.15,SW,214,3.0,7.0,92,0.00,,,0.02,meteohub,2013-01-12 01:09:00,
2013-01-11 20:14:00,59.4,57.4,30.15,SW,236,4.0,6.0,93,0.00,,,0.02,meteohub,2013-01-12 01:14:00,
2013-01-11 20:19:00,59.5,57.6,30.14,WSW,257,4.0,6.0,93,0.00,,,0.02,meteohub,2013-01-12 01:19:00,
2013-01-11 20:24:00,59.5,57.6,30.14,SSW,201,2.0,6.0,93,0.00,,,0.02,meteohub,2013-01-12 01:24:00,
2013-01-11 20:29:00,59.7,57.9,30.14,SW,217,3.0,7.0,94,0.00,,,0.02,meteohub,2013-01-12 01:29:00,
2013-01-11 20:34:00,59.7,57.9,30.14,WNW,282,2.0,8.0,94,0.00,,,0.02,meteohub,2013-01-12 01:34:00,
2013-01-11 20:40:00,59.9,58.1,30.14,SSW,212,3.0,9.0,94,0.00,,,0.02,meteohub,2013-01-12 01:40:00,
2013-01-11 20:45:00,60.1,58.6,30.14,SW,217,3.0,9.0,95,0.00,,,0.02,meteohub,2013-01-12 01:45:00,
2013-01-11 20:50:00,60.1,58.6,30.14,SW,228,2.0,9.0,95,0.00,,,0.02,meteohub,2013-01-12 01:50:00,
2013-01-11 20:55:00,60.1,58.6,30.14,SW,226,3.0,8.0,95,0.00,,,0.02,meteohub,2013-01-12 01:55:00,
2013-01-11 21:00:00,60.1,58.6,30.14,SW,231,9.0,9.0,95,0.00,,,0.02,meteohub,2013-01-12 02:00:00,
2013-01-11 21:05:00,60.1,58.6,30.14,SW,226,5.0,7.0,95,0.00,,,0.02,meteohub,2013-01-12 02:05:00,
2013-01-11 21:10:00,60.1,58.6,30.14,West,277,3.0,9.0,95,0.00,,,0.02,meteohub,2013-01-12 02:10:00,
2013-01-11 21:15:00,60.1,59.0,30.13,WSW,243,3.0,9.0,96,0.00,,,0.02,meteohub,2013-01-12 02:15:00,
2013-01-11 21:20:00,60.1,59.0,30.13,SW,225,9.0,9.0,96,0.00,,,0.02,meteohub,2013-01-12 02:20:00,
2013-01-11 21:25:00,60.1,59.0,30.13,SW,229,5.0,9.0,96,0.00,,,0.02,meteohub,2013-01-12 02:25:00,
2013-01-11 21:30:00,60.1,59.0,30.13,SSW,211,4.0,9.0,96,0.00,,,0.02,meteohub,2013-01-12 02:30:00,
2013-01-11 21:35:00,60.1,59.0,30.14,SW,233,1.0,9.0,96,0.00,,,0.02,meteohub,2013-01-12 02:35:00,
2013-01-11 21:40:00,60.3,59.2,30.13,WSW,248,3.0,7.0,96,0.00,,,0.02,meteohub,2013-01-12 02:40:00,
2013-01-11 21:45:00,60.3,59.2,30.14,West,266,2.0,10.0,96,0.00,,,0.02,meteohub,2013-01-12 02:45:00,
2013-01-11 21:50:00,60.3,59.2,30.14,WNW,293,1.0,10.0,96,0.00,,,0.02,meteohub,2013-01-12 02:50:00,
2013-01-11 21:55:00,60.3,59.2,30.14,SW,229,2.0,8.0,96,0.00,,,0.02,meteohub,2013-01-12 02:55:00,
2013-01-11 22:00:00,60.3,59.2,30.14,SSW,200,0.0,8.0,96,0.00,,,0.02,meteohub,2013-01-12 03:00:00,
2013-01-11 22:05:00,60.3,59.2,30.14,West,278,1.0,8.0,96,0.00,,,0.02,meteohub,2013-01-12 03:05:00,
2013-01-11 22:10:00,60.3,59.2,30.14,West,259,5.0,7.0,96,0.00,,,0.02,meteohub,2013-01-12 03:10:00,
2013-01-11 22:16:00,60.1,59.0,30.14,West,259,0.0,7.0,96,0.00,,,0.02,meteohub,2013-01-12 03:16:00,
2013-01-11 22:21:00,60.1,59.0,30.14,West,275,3.0,8.0,96,0.00,,,0.02,meteohub,2013-01-12 03:21:00,
2013-01-11 22:26:00,60.1,59.0,30.14,West,264,5.0,8.0,96,0.00,,,0.02,meteohub,2013-01-12 03:26:00,
2013-01-11 22:31:00,59.9,59.0,30.14,WNW,286,2.0,8.0,97,0.00,,,0.02,meteohub,2013-01-12 03:31:00,
2013-01-11 22:36:00,59.9,59.0,30.14,West,260,4.0,6.0,97,0.00,,,0.02,meteohub,2013-01-12 03:36:00,
2013-01-11 22:41:00,59.9,59.0,30.14,West,267,3.0,6.0,97,0.00,,,0.02,meteohub,2013-01-12 03:41:00,
2013-01-11 22:46:00,59.9,59.0,30.15,WNW,290,4.0,7.0,97,0.00,,,0.02,meteohub,2013-01-12 03:46:00,
2013-01-11 22:51:00,59.9,59.0,30.14,West,277,6.0,7.0,97,0.00,,,0.02,meteohub,2013-01-12 03:51:00,
2013-01-11 22:56:00,59.9,59.0,30.15,WNW,291,3.0,7.0,97,0.00,,,0.02,meteohub,2013-01-12 03:56:00,
2013-01-11 23:01:00,59.9,59.0,30.14,WNW,301,3.0,7.0,97,0.00,,,0.02,meteohub,2013-01-12 04:01:00,
2013-01-11 23:06:00,60.1,59.2,30.14,West,263,3.0,7.0,97,0.00,,,0.02,meteohub,2013-01-12 04:06:00,
2013-01-11 23:11:00,60.1,59.2,30.15,West,274,2.0,6.0,97,0.00,,,0.02,meteohub,2013-01-12 04:11:00,
2013-01-11 23:16:00,60.1,59.2,30.14,WNW,283,2.0,6.0,97,0.00,,,0.02,meteohub,2013-01-12 04:16:00,
2013-01-11 23:21:00,60.1,59.2,30.14,West,259,3.0,6.0,97,0.00,,,0.02,meteohub,2013-01-12 04:21:00,
2013-01-11 23:26:00,60.1,59.2,30.14,WNW,287,2.0,6.0,97,0.00,,,0.02,meteohub,2013-01-12 04:26:00,
2013-01-11 23:32:00,60.1,59.2,30.14,West,281,3.0,5.0,97,0.00,,,0.02,meteohub,2013-01-12 04:32:00,
2013-01-11 23:37:00,60.1,59.2,30.14,West,271,1.0,6.0,97,0.00,,,0.02,meteohub,2013-01-12 04:37:00,
2013-01-11 23:42:00,60.1,59.5,30.14,WNW,295,1.0,6.0,98,0.00,,,0.02,meteohub,2013-01-12 04:42:00,
2013-01-11 23:47:00,60.1,59.5,30.13,West,271,3.0,6.0,98,0.00,,,0.02,meteohub,2013-01-12 04:47:00,
2013-01-11 23:52:00,60.1,59.5,30.13,West,263,5.0,5.0,98,0.00,,,0.02,meteohub,2013-01-12 04:52:00,
2013-01-11 23:57:00,60.1,59.5,30.13,West,262,3.0,6.0,98,0.00,,,0.02,meteohub,2013-01-12 04:57:00,